createdAt,value
2017-02-05T00:00:32.548Z,95.8
2017-02-05T00:01:35.001Z,95.8
2017-02-05T00:02:37.454Z,95.8
2017-02-05T00:03:39.898Z,95.8
2017-02-05T00:04:42.350Z,95.8
2017-02-05T00:05:44.805Z,95.8
2017-02-05T00:06:47.777Z,95.8
2017-02-05T00:07:50.224Z,95.8
2017-02-05T00:08:52.888Z,95.8
2017-02-05T00:09:55.334Z,95.8
2017-02-05T00:10:57.783Z,95.8
2017-02-05T00:12:00.228Z,95.8
2017-02-05T00:13:02.673Z,95.8
2017-02-05T00:14:05.633Z,95.9
2017-02-05T00:15:08.083Z,95.9
2017-02-05T00:16:10.557Z,95.9
2017-02-05T00:17:13.014Z,95.9
2017-02-05T00:18:15.464Z,95.9
2017-02-05T00:19:17.908Z,95.9
2017-02-05T00:20:20.862Z,95.9
2017-02-05T00:21:23.308Z,95.9
2017-02-05T00:22:25.755Z,95.9
2017-02-05T00:23:28.032Z,95.9
2017-02-05T00:24:30.981Z,95.9
2017-02-05T00:25:33.427Z,95.9
2017-02-05T00:26:35.872Z,95.9
2017-02-05T00:27:38.323Z,95.9
2017-02-05T00:28:40.773Z,95.9
2017-02-05T00:29:43.558Z,95.9
2017-02-05T00:30:46.010Z,95.9
2017-02-05T00:31:48.461Z,95.9
2017-02-05T00:32:50.913Z,95.9
2017-02-05T00:33:53.865Z,95.9
2017-02-05T00:34:56.342Z,95.9
2017-02-05T00:35:58.787Z,95.9
2017-02-05T00:37:01.234Z,95.9
2017-02-05T00:38:03.685Z,95.9
2017-02-05T00:39:06.137Z,95.9
2017-02-05T00:40:08.929Z,95.9
2017-02-05T00:41:11.381Z,95.9
2017-02-05T00:42:13.833Z,95.9
2017-02-05T00:43:16.284Z,95.9
2017-02-05T00:44:19.231Z,95.9
2017-02-05T00:45:22.203Z,95.9
2017-02-05T00:46:23.982Z,95.9
2017-02-05T00:47:26.929Z,95.9
2017-02-05T00:48:29.381Z,95.9
2017-02-05T00:49:31.837Z,95.9
2017-02-05T00:50:34.149Z,95.9
2017-02-05T00:51:36.599Z,95.9
2017-02-05T00:52:39.551Z,95.9
2017-02-05T00:53:42.002Z,95.9
2017-02-05T00:54:44.450Z,95.9
2017-02-05T00:55:46.899Z,95.9
2017-02-05T00:56:49.350Z,95.9
2017-02-05T00:57:52.302Z,95.9
2017-02-05T00:58:54.749Z,95.9
2017-02-05T01:00:59.605Z,95.9
2017-02-05T01:02:01.890Z,96
2017-02-05T01:03:04.845Z,96
2017-02-05T01:04:07.818Z,96
2017-02-05T01:05:09.759Z,96
2017-02-05T01:06:12.211Z,96
2017-02-05T01:07:15.168Z,96
2017-02-05T01:08:17.617Z,96
2017-02-05T01:09:20.071Z,96
2017-02-05T01:10:22.519Z,96
2017-02-05T01:11:24.963Z,96
2017-02-05T01:12:27.244Z,96
2017-02-05T01:13:30.190Z,96
2017-02-05T01:14:32.639Z,96
2017-02-05T01:15:35.088Z,96
2017-02-05T01:16:37.539Z,96
2017-02-05T01:17:40.325Z,96
2017-02-05T01:18:42.775Z,96
2017-02-05T01:19:45.226Z,96
2017-02-05T01:20:48.176Z,96
2017-02-05T01:21:50.621Z,96
2017-02-05T01:23:55.481Z,96
2017-02-05T01:24:57.930Z,96
2017-02-05T01:26:00.883Z,96
2017-02-05T01:27:03.341Z,96
2017-02-05T01:28:05.622Z,96
2017-02-05T01:29:08.023Z,96
2017-02-05T01:30:10.635Z,96
2017-02-05T01:31:13.086Z,96
2017-02-05T01:32:16.038Z,96
2017-02-05T01:33:18.485Z,96
2017-02-05T01:34:20.929Z,96
2017-02-05T01:35:23.375Z,96
2017-02-05T01:36:25.825Z,96
2017-02-05T01:37:28.606Z,96
2017-02-05T01:38:31.055Z,96
2017-02-05T01:39:33.501Z,96
2017-02-05T01:41:38.688Z,96
2017-02-05T01:42:41.135Z,96
2017-02-05T01:43:43.584Z,96
2017-02-05T01:44:46.538Z,96
2017-02-05T01:45:48.986Z,96
2017-02-05T01:46:51.456Z,96
2017-02-05T01:47:53.930Z,96
2017-02-05T01:48:56.381Z,96
2017-02-05T01:51:01.743Z,96
2017-02-05T01:52:04.192Z,96
2017-02-05T01:53:06.636Z,96
2017-02-05T01:54:08.917Z,96
2017-02-05T01:55:11.866Z,96
2017-02-05T01:56:14.316Z,96
2017-02-05T01:58:19.176Z,96
2017-02-05T01:59:21.625Z,96
2017-02-05T02:00:24.581Z,96
2017-02-05T02:01:27.031Z,96
2017-02-05T02:02:29.487Z,96
2017-02-05T02:03:31.940Z,96
2017-02-05T02:04:34.392Z,96
2017-02-05T02:05:37.177Z,96
2017-02-05T02:06:39.630Z,96
2017-02-05T02:07:42.076Z,96
2017-02-05T02:08:44.525Z,96
2017-02-05T02:09:46.972Z,96
2017-02-05T02:10:49.925Z,96
2017-02-05T02:11:52.370Z,96
2017-02-05T02:12:54.650Z,96
2017-02-05T02:13:57.094Z,96
2017-02-05T02:15:00.042Z,96
2017-02-05T02:16:02.491Z,96
2017-02-05T02:17:04.939Z,96
2017-02-05T02:18:07.389Z,96
2017-02-05T02:19:10.008Z,96
2017-02-05T02:20:12.453Z,96
2017-02-05T02:21:14.899Z,96
2017-02-05T02:22:17.851Z,96
2017-02-05T02:23:20.302Z,96.1
2017-02-05T02:24:22.751Z,96.1
2017-02-05T02:25:25.201Z,96.1
2017-02-05T02:26:27.651Z,96.1
2017-02-05T02:27:30.097Z,96.1
2017-02-05T02:28:33.047Z,96.1
2017-02-05T02:29:35.500Z,96.1
2017-02-05T02:30:37.951Z,96.1
2017-02-05T02:31:40.411Z,96.1
2017-02-05T02:32:42.860Z,96.1
2017-02-05T02:33:45.311Z,96.1
2017-02-05T02:34:48.275Z,96.1
2017-02-05T02:35:50.743Z,96.1
2017-02-05T02:36:53.194Z,96.1
2017-02-05T02:37:55.638Z,96.1
2017-02-05T02:38:58.087Z,96.1
2017-02-05T02:40:00.534Z,96.1
2017-02-05T02:41:03.492Z,96.1
2017-02-05T02:42:05.936Z,96.1
2017-02-05T02:43:08.216Z,96.1
2017-02-05T02:44:10.661Z,96.1
2017-02-05T02:46:16.020Z,96.1
2017-02-05T02:47:18.469Z,96.1
2017-02-05T02:48:20.745Z,96.1
2017-02-05T02:49:23.698Z,96.1
2017-02-05T02:50:26.142Z,96.1
2017-02-05T02:51:28.588Z,96.1
2017-02-05T02:52:31.031Z,96.1
2017-02-05T02:53:33.481Z,96.1
2017-02-05T02:54:36.265Z,96.1
2017-02-05T02:55:38.714Z,96.1
2017-02-05T02:56:41.168Z,96.1
2017-02-05T02:57:43.621Z,96.1
2017-02-05T02:58:46.576Z,96.1
2017-02-05T02:59:49.025Z,96.1
2017-02-05T03:00:51.473Z,96.1
2017-02-05T03:01:53.922Z,96.1
2017-02-05T03:02:56.401Z,96.1
2017-02-05T03:03:58.855Z,96.1
2017-02-05T03:05:01.804Z,96.1
2017-02-05T03:06:04.085Z,96.1
2017-02-05T03:07:06.533Z,96.1
2017-02-05T03:08:08.981Z,96.2
2017-02-05T03:09:11.941Z,96.2
2017-02-05T03:10:14.391Z,96.2
2017-02-05T03:11:16.841Z,96.2
2017-02-05T03:12:19.290Z,96.1
2017-02-05T03:13:21.733Z,96.1
2017-02-05T03:14:24.181Z,96.2
2017-02-05T03:15:26.962Z,96.2
2017-02-05T03:16:29.404Z,96.2
2017-02-05T03:17:31.849Z,96.2
2017-02-05T03:18:34.633Z,96.2
2017-02-05T03:19:37.082Z,96.2
2017-02-05T03:20:39.530Z,96.2
2017-02-05T03:21:41.981Z,96.2
2017-02-05T03:22:44.939Z,96.2
2017-02-05T03:23:47.391Z,96.2
2017-02-05T03:24:49.844Z,96.2
2017-02-05T03:25:52.296Z,96.2
2017-02-05T03:26:54.749Z,96.2
2017-02-05T03:27:57.192Z,96.2
2017-02-05T03:29:00.144Z,96.2
2017-02-05T03:30:02.593Z,96.2
2017-02-05T03:31:04.873Z,96.2
2017-02-05T03:33:10.233Z,96.2
2017-02-05T03:34:13.205Z,96.2
2017-02-05T03:35:15.153Z,96.2
2017-02-05T03:36:17.600Z,96.2
2017-02-05T03:37:20.044Z,96.2
2017-02-05T03:38:22.996Z,96.2
2017-02-05T03:39:25.446Z,96.2
2017-02-05T03:40:27.895Z,96.2
2017-02-05T03:41:30.176Z,96.2
2017-02-05T03:42:32.853Z,96.2
2017-02-05T03:43:35.132Z,96.2
2017-02-05T03:44:38.082Z,96.2
2017-02-05T03:45:40.373Z,96.2
2017-02-05T03:46:42.825Z,96.2
2017-02-05T03:47:45.784Z,96.2
2017-02-05T03:48:48.254Z,96.2
2017-02-05T03:49:50.703Z,96.2
2017-02-05T03:50:53.148Z,96.2
2017-02-05T03:51:55.593Z,96.2
2017-02-05T03:52:58.535Z,96.2
2017-02-05T03:54:00.976Z,96.2
2017-02-05T03:55:03.249Z,96.2
2017-02-05T03:56:05.693Z,96.2
2017-02-05T03:57:08.475Z,96.2
2017-02-05T03:58:10.916Z,96.2
2017-02-05T03:59:13.362Z,96.2
2017-02-05T04:00:16.307Z,96.2
2017-02-05T04:01:18.751Z,96.2
2017-02-05T04:02:21.196Z,96.2
2017-02-05T04:03:23.639Z,96.2
2017-02-05T04:04:26.079Z,96.2
2017-02-05T04:05:29.022Z,96.2
2017-02-05T04:06:31.462Z,96.2
2017-02-05T04:07:33.904Z,96.2
2017-02-05T04:08:36.198Z,96.2
2017-02-05T04:10:41.546Z,96.2
2017-02-05T04:11:43.986Z,96.2
2017-02-05T04:12:46.427Z,96.2
2017-02-05T04:13:48.873Z,96.2
2017-02-05T04:14:51.819Z,96.2
2017-02-05T04:15:54.263Z,96.2
2017-02-05T04:16:56.704Z,96.2
2017-02-05T04:17:59.149Z,96.2
2017-02-05T04:19:01.595Z,96.2
2017-02-05T04:20:04.543Z,96.2
2017-02-05T04:21:06.980Z,96.2
2017-02-05T04:22:09.425Z,96.2
2017-02-05T04:23:11.869Z,96.2
2017-02-05T04:24:14.310Z,96.2
2017-02-05T04:25:17.249Z,96.2
2017-02-05T04:26:19.690Z,96.2
2017-02-05T04:27:22.134Z,96.2
2017-02-05T04:28:24.577Z,96.2
2017-02-05T04:29:27.023Z,96.2
2017-02-05T04:30:29.969Z,96.2
2017-02-05T04:31:32.242Z,96.2
2017-02-05T04:32:34.680Z,96.2
2017-02-05T04:33:37.626Z,96.2
2017-02-05T04:34:39.901Z,96.2
2017-02-05T04:35:42.174Z,96.2
2017-02-05T04:36:44.954Z,96.2
2017-02-05T04:37:47.389Z,96.2
2017-02-05T04:38:50.167Z,96.2
2017-02-05T04:39:52.609Z,96.2
2017-02-05T04:40:55.052Z,96.2
2017-02-05T04:41:57.496Z,96.2
2017-02-05T04:43:00.444Z,96.2
2017-02-05T04:44:02.886Z,96.2
2017-02-05T04:45:05.332Z,96.2
2017-02-05T04:46:07.777Z,96.2
2017-02-05T04:48:12.962Z,96.2
2017-02-05T04:49:15.404Z,96.2
2017-02-05T04:50:17.883Z,96.2
2017-02-05T04:51:20.827Z,96.2
2017-02-05T04:52:23.268Z,96.2
2017-02-05T04:53:25.711Z,96.2
2017-02-05T04:54:28.150Z,96.2
2017-02-05T04:55:30.592Z,96.2
2017-02-05T04:56:33.369Z,96.2
2017-02-05T04:57:35.639Z,96.2
2017-02-05T04:58:38.585Z,96.2
2017-02-05T04:59:41.029Z,96.2
2017-02-05T05:00:43.473Z,96.2
2017-02-05T05:01:46.255Z,96.2
2017-02-05T05:02:48.704Z,96.2
2017-02-05T05:03:51.143Z,96.2
2017-02-05T05:04:54.438Z,96.2
2017-02-05T05:05:56.382Z,96.2
2017-02-05T05:06:58.824Z,96.2
2017-02-05T05:08:01.265Z,96.2
2017-02-05T05:09:03.708Z,96.2
2017-02-05T05:10:06.657Z,96.2
2017-02-05T05:11:08.929Z,96.2
2017-02-05T05:12:11.703Z,96.2
2017-02-05T05:13:13.976Z,96.2
2017-02-05T05:14:16.448Z,96.2
2017-02-05T05:15:18.888Z,96.2
2017-02-05T05:16:21.715Z,96.2
2017-02-05T05:17:24.157Z,96.2
2017-02-05T05:18:26.602Z,96.2
2017-02-05T05:19:29.550Z,96.2
2017-02-05T05:20:31.851Z,96.2
2017-02-05T05:21:34.294Z,96.2
2017-02-05T05:22:36.567Z,96.2
2017-02-05T05:23:39.344Z,96.2
2017-02-05T05:24:41.786Z,96.2
2017-02-05T05:25:44.731Z,96.2
2017-02-05T05:26:47.167Z,96.2
2017-02-05T05:27:49.606Z,96.2
2017-02-05T05:28:52.044Z,96.2
2017-02-05T05:29:54.989Z,96.2
2017-02-05T05:30:57.435Z,96.2
2017-02-05T05:31:59.878Z,96.2
2017-02-05T05:33:02.316Z,96.2
2017-02-05T05:34:04.758Z,96.2
2017-02-05T05:35:07.700Z,96.2
2017-02-05T05:36:09.979Z,96.2
2017-02-05T05:38:15.167Z,96.2
2017-02-05T05:40:20.014Z,96.2
2017-02-05T05:41:22.956Z,96.2
2017-02-05T05:42:25.395Z,96.2
2017-02-05T05:43:27.834Z,96.2
2017-02-05T05:44:30.275Z,96.2
2017-02-05T05:45:32.735Z,96.2
2017-02-05T05:46:35.697Z,96.2
2017-02-05T05:47:37.975Z,96.2
2017-02-05T05:48:40.417Z,96.2
2017-02-05T05:49:43.362Z,96.2
2017-02-05T05:50:45.802Z,96.2
2017-02-05T05:51:48.243Z,96.3
2017-02-05T05:52:50.705Z,96.3
2017-02-05T05:53:53.145Z,96.3
2017-02-05T05:54:56.090Z,96.3
2017-02-05T05:55:58.555Z,96.3
2017-02-05T05:57:00.996Z,96.3
2017-02-05T05:58:03.436Z,96.3
2017-02-05T05:59:05.877Z,96.3
2017-02-05T06:00:08.653Z,96.3
2017-02-05T06:01:11.095Z,96.3
2017-02-05T06:02:13.375Z,96.3
2017-02-05T06:04:18.728Z,96.3
2017-02-05T06:05:21.177Z,96.3
2017-02-05T06:06:24.118Z,96.3
2017-02-05T06:07:26.559Z,96.3
2017-02-05T06:08:29.006Z,96.3
2017-02-05T06:09:31.445Z,96.3
2017-02-05T06:10:33.884Z,96.3
2017-02-05T06:11:36.825Z,96.3
2017-02-05T06:12:39.270Z,96.3
2017-02-05T06:13:42.071Z,96.3
2017-02-05T06:14:44.007Z,96.3
2017-02-05T06:15:46.950Z,96.3
2017-02-05T06:16:49.387Z,96.3
2017-02-05T06:17:51.844Z,96.2
2017-02-05T06:18:54.287Z,96.3
2017-02-05T06:19:57.232Z,96.3
2017-02-05T06:20:59.670Z,96.3
2017-02-05T06:22:02.111Z,96.3
2017-02-05T06:23:04.551Z,96.3
2017-02-05T06:24:06.989Z,96.3
2017-02-05T06:25:09.937Z,96.3
2017-02-05T06:27:14.789Z,96.2
2017-02-05T06:28:17.227Z,96.2
2017-02-05T06:29:20.171Z,96.3
2017-02-05T06:31:25.014Z,96.3
2017-02-05T06:32:27.451Z,96.3
2017-02-05T06:33:29.889Z,96.3
2017-02-05T06:35:35.239Z,96.3
2017-02-05T06:36:37.673Z,96.3
2017-02-05T06:37:40.137Z,96.3
2017-02-05T06:38:42.914Z,96.3
2017-02-05T06:39:45.354Z,96.3
2017-02-05T06:40:47.796Z,96.3
2017-02-05T06:41:50.570Z,96.3
2017-02-05T06:42:53.011Z,96.3
2017-02-05T06:43:55.452Z,96.3
2017-02-05T06:44:57.893Z,96.3
2017-02-05T06:46:00.839Z,96.3
2017-02-05T06:47:03.113Z,96.3
2017-02-05T06:48:05.389Z,96.3
2017-02-05T06:49:08.361Z,96.3
2017-02-05T06:50:10.650Z,96.3
2017-02-05T06:51:13.591Z,96.3
2017-02-05T06:52:16.034Z,96.3
2017-02-05T06:53:18.472Z,96.3
2017-02-05T06:54:20.917Z,96.3
2017-02-05T06:55:23.363Z,96.3
2017-02-05T06:56:26.312Z,96.3
2017-02-05T06:57:28.751Z,96.3
2017-02-05T06:58:31.190Z,96.3
2017-02-05T06:59:33.630Z,96.3
2017-02-05T07:00:36.572Z,96.3
2017-02-05T07:01:39.012Z,96.3
2017-02-05T07:02:41.454Z,96.3
2017-02-05T07:03:43.895Z,96.3
2017-02-05T07:04:46.586Z,96.3
2017-02-05T07:05:49.028Z,96.3
2017-02-05T07:06:51.999Z,96.3
2017-02-05T07:07:53.939Z,96.3
2017-02-05T07:08:56.907Z,96.3
2017-02-05T07:09:59.346Z,96.3
2017-02-05T07:11:01.785Z,96.3
2017-02-05T07:12:04.229Z,96.3
2017-02-05T07:13:06.669Z,96.3
2017-02-05T07:14:09.614Z,96.3
2017-02-05T07:15:12.058Z,96.3
2017-02-05T07:16:14.501Z,96.3
2017-02-05T07:17:16.947Z,96.3
2017-02-05T07:18:19.892Z,96.3
2017-02-05T07:19:22.166Z,96.3
2017-02-05T07:20:24.606Z,96.3
2017-02-05T07:21:27.382Z,96.3
2017-02-05T07:22:29.821Z,96.3
2017-02-05T07:23:32.261Z,96.3
2017-02-05T07:24:34.699Z,96.3
2017-02-05T07:25:37.645Z,96.3
2017-02-05T07:26:40.082Z,96.3
2017-02-05T07:27:42.353Z,96.3
2017-02-05T07:28:45.299Z,96.3
2017-02-05T07:29:47.741Z,96.3
2017-02-05T07:30:50.178Z,96.3
2017-02-05T07:31:52.616Z,96.3
2017-02-05T07:32:55.559Z,96.3
2017-02-05T07:33:58.004Z,96.3
2017-02-05T07:35:00.448Z,96.3
2017-02-05T07:36:02.888Z,96.3
2017-02-05T07:37:05.330Z,96.3
2017-02-05T07:38:08.105Z,96.3
2017-02-05T07:40:13.285Z,96.3
2017-02-05T07:41:15.724Z,96.3
2017-02-05T07:42:18.167Z,96.3
2017-02-05T07:43:20.647Z,96.3
2017-02-05T07:44:23.434Z,96.3
2017-02-05T07:45:25.878Z,96.3
2017-02-05T07:46:28.318Z,96.3
2017-02-05T07:47:31.264Z,96.3
2017-02-05T07:48:33.708Z,96.3
2017-02-05T07:49:36.151Z,96.3
2017-02-05T07:50:38.594Z,96.3
2017-02-05T07:51:41.035Z,96.3
2017-02-05T07:52:43.811Z,96.3
2017-02-05T07:53:46.248Z,96.3
2017-02-05T07:54:48.721Z,96.3
2017-02-05T07:55:51.676Z,96.3
2017-02-05T07:56:54.115Z,96.3
2017-02-05T07:57:56.563Z,96.3
2017-02-05T07:58:59.005Z,96.3
2017-02-05T08:00:01.450Z,96.3
2017-02-05T08:02:06.858Z,96.3
2017-02-05T08:03:09.307Z,96.3
2017-02-05T08:04:11.748Z,96.3
2017-02-05T08:05:14.200Z,96.3
2017-02-05T08:06:17.143Z,96.3
2017-02-05T08:07:19.416Z,96.3
2017-02-05T08:08:21.856Z,96.3
2017-02-05T08:09:24.632Z,96.3
2017-02-05T08:10:27.073Z,96.3
2017-02-05T08:11:29.516Z,96.3
2017-02-05T08:12:32.487Z,96.3
2017-02-05T08:15:39.740Z,96.3
2017-02-05T08:16:42.681Z,96.3
2017-02-05T08:17:45.125Z,96.3
2017-02-05T08:18:47.398Z,96.3
2017-02-05T08:19:50.347Z,96.3
2017-02-05T08:20:52.787Z,96.3
2017-02-05T08:21:55.229Z,96.3
2017-02-05T08:22:57.670Z,96.3
2017-02-05T08:24:00.623Z,96.3
2017-02-05T08:25:03.061Z,96.3
2017-02-05T08:26:05.167Z,96.3
2017-02-05T08:27:07.950Z,96.3
2017-02-05T08:28:10.398Z,96.3
2017-02-05T08:29:13.349Z,96.3
2017-02-05T08:30:15.791Z,96.3
2017-02-05T08:31:18.063Z,96.3
2017-02-05T08:32:21.003Z,96.3
2017-02-05T08:33:23.449Z,96.3
2017-02-05T08:34:25.890Z,96.3
2017-02-05T08:37:33.651Z,96.3
2017-02-05T08:53:11.781Z,96.3
2017-02-05T09:00:29.667Z,96.3
2017-02-05T09:01:32.609Z,96.3
2017-02-05T09:02:35.050Z,96.3
2017-02-05T09:03:37.496Z,96.3
2017-02-05T09:05:42.847Z,96.3
2017-02-05T09:06:45.292Z,96.3
2017-02-05T09:07:47.732Z,96.3
2017-02-05T09:08:50.179Z,96.3
2017-02-05T09:09:53.123Z,96.3
2017-02-05T09:10:55.566Z,96.3
2017-02-05T09:11:58.013Z,96.3
2017-02-05T09:14:03.369Z,96.3
2017-02-05T09:19:15.927Z,96.3
2017-02-05T09:23:26.086Z,96.3
2017-02-05T09:24:28.530Z,96.3
2017-02-05T09:25:31.477Z,96.3
2017-02-05T09:26:33.919Z,96.2
2017-02-05T09:27:36.355Z,96.2
2017-02-05T09:28:38.815Z,96.2
2017-02-05T09:30:44.168Z,96.2
2017-02-05T09:31:46.437Z,96.2
2017-02-05T09:32:49.213Z,96.2
2017-02-05T09:33:51.655Z,96.2
2017-02-05T09:34:54.602Z,96.2
2017-02-05T09:35:56.878Z,96.2
2017-02-05T09:36:59.316Z,96.2
2017-02-05T09:39:04.668Z,96.2
2017-02-05T09:40:07.106Z,96.2
2017-02-05T09:41:09.886Z,96.2
2017-02-05T09:42:12.330Z,96.2
2017-02-05T09:43:14.773Z,96.2
2017-02-05T09:44:17.218Z,96.2
2017-02-05T09:45:20.166Z,96.2
2017-02-05T09:46:22.446Z,96.2
2017-02-05T09:47:24.725Z,96.2
2017-02-05T09:48:27.669Z,96.2
2017-02-05T09:49:30.107Z,96.2
2017-02-05T09:50:32.544Z,96.2
2017-02-05T09:51:35.508Z,96.2
2017-02-05T09:52:37.950Z,96.2
2017-02-05T09:53:40.232Z,96.2
2017-02-05T09:54:43.176Z,96.2
2017-02-05T09:56:48.022Z,96.2
2017-02-05T09:57:50.462Z,96.2
2017-02-05T09:58:53.409Z,96.2
2017-02-05T09:59:55.862Z,96.2
2017-02-05T10:00:58.306Z,96.2
2017-02-05T10:02:00.746Z,96.2
2017-02-05T10:03:03.695Z,96.2
2017-02-05T10:04:05.968Z,96.2
2017-02-05T10:05:08.410Z,96.2
2017-02-05T10:06:11.367Z,96.2
2017-02-05T10:07:13.807Z,96.2
2017-02-05T10:08:16.285Z,96.2
2017-02-05T10:09:18.740Z,96.2
2017-02-05T10:10:21.186Z,96.2
2017-02-05T10:11:23.962Z,96.2
2017-02-05T10:12:26.239Z,96.2
2017-02-05T10:13:29.015Z,96.2
2017-02-05T10:15:34.369Z,96.2
2017-02-05T10:18:41.958Z,96.1
2017-02-05T10:19:44.403Z,96.1
2017-02-05T10:20:46.852Z,96.1
2017-02-05T10:22:52.209Z,96.1
2017-02-05T10:23:54.480Z,96.1
2017-02-05T10:25:59.838Z,96.1
2017-02-05T10:27:02.282Z,96.1
2017-02-05T10:28:04.723Z,96.1
2017-02-05T10:29:07.673Z,96.1
2017-02-05T10:30:10.116Z,96.1
2017-02-05T10:31:12.562Z,96.1
2017-02-05T10:32:15.005Z,96.1
2017-02-05T10:33:17.955Z,96.1
2017-02-05T10:34:20.402Z,96.1
2017-02-05T10:35:22.841Z,96.1
2017-02-05T10:36:25.279Z,96.1
2017-02-05T10:37:28.054Z,96.1
2017-02-05T10:39:32.902Z,96.1
2017-02-05T10:40:35.848Z,96.1
2017-02-05T10:41:38.295Z,96.1
2017-02-05T10:42:40.737Z,96.1
2017-02-05T10:43:43.519Z,96.1
2017-02-05T10:44:45.962Z,96.1
2017-02-05T10:46:51.340Z,96.1
2017-02-05T10:47:53.781Z,96.1
2017-02-05T10:48:56.221Z,96.1
2017-02-05T10:49:58.664Z,96.1
2017-02-05T10:51:01.106Z,96.1
2017-02-05T10:52:03.890Z,96.1
2017-02-05T10:53:06.333Z,96
2017-02-05T10:54:09.278Z,96
2017-02-05T10:55:12.270Z,96
2017-02-05T10:56:14.211Z,96
2017-02-05T10:57:16.656Z,96
2017-02-05T10:58:19.101Z,96
2017-02-05T10:59:22.048Z,96
2017-02-05T11:00:24.495Z,95.9
2017-02-05T11:01:26.835Z,95.9
2017-02-05T11:02:29.784Z,95.9
2017-02-05T11:03:32.251Z,95.9
2017-02-05T11:04:35.079Z,95.9
2017-02-05T11:05:37.544Z,95.8
2017-02-05T11:06:39.986Z,95.8
2017-02-05T11:07:42.430Z,95.8
2017-02-05T11:08:44.875Z,95.8
2017-02-05T11:09:47.818Z,95.8
2017-02-05T11:10:49.930Z,95.7
2017-02-05T11:11:52.707Z,95.7
2017-02-05T11:12:55.491Z,95.7
2017-02-05T11:13:57.937Z,95.7
2017-02-05T11:15:00.378Z,95.6
2017-02-05T11:16:02.826Z,95.6
2017-02-05T11:17:05.779Z,95.6
2017-02-05T11:18:08.221Z,95.6
2017-02-05T11:19:11.000Z,95.6
2017-02-05T11:20:13.474Z,95.6
2017-02-05T11:21:15.915Z,95.6
2017-02-05T11:22:18.355Z,95.5
2017-02-05T11:23:21.304Z,95.5
2017-02-05T11:24:23.578Z,95.5
2017-02-05T11:25:26.026Z,95.5
2017-02-05T11:26:28.971Z,95.5
2017-02-05T11:27:31.412Z,95.4
2017-02-05T11:28:33.879Z,95.4
2017-02-05T11:29:36.826Z,95.4
2017-02-05T11:30:39.269Z,95.4
2017-02-05T11:31:41.712Z,95.4
2017-02-05T11:32:44.153Z,95.3
2017-02-05T11:33:46.933Z,95.3
2017-02-05T11:34:49.377Z,95.3
2017-02-05T11:35:51.820Z,95.3
2017-02-05T11:36:54.766Z,95.3
2017-02-05T11:37:57.204Z,95.2
2017-02-05T11:38:59.649Z,95.2
2017-02-05T11:40:02.589Z,95.2
2017-02-05T11:41:05.031Z,95.2
2017-02-05T11:42:07.301Z,95.2
2017-02-05T11:43:10.244Z,95.2
2017-02-05T11:44:12.683Z,95.2
2017-02-05T11:45:15.128Z,95.2
2017-02-05T11:46:17.904Z,95.1
2017-02-05T11:47:20.352Z,95.1
2017-02-05T11:48:22.795Z,95.1
2017-02-05T11:49:25.738Z,95.1
2017-02-05T11:50:28.183Z,95.1
2017-02-05T11:51:30.627Z,95.1
2017-02-05T11:52:33.568Z,95.1
2017-02-05T11:53:36.544Z,95.1
2017-02-05T11:54:38.484Z,95
2017-02-05T11:55:40.923Z,95
2017-02-05T11:56:43.867Z,95
2017-02-05T11:57:46.310Z,95
2017-02-05T11:58:48.776Z,95
2017-02-05T11:59:51.215Z,95
2017-02-05T12:00:54.184Z,95
2017-02-05T12:01:56.626Z,95
2017-02-05T12:02:59.068Z,95
2017-02-05T12:05:04.256Z,94.9
2017-02-05T12:06:06.694Z,94.9
2017-02-05T12:07:09.636Z,94.9
2017-02-05T12:08:12.076Z,94.9
2017-02-05T12:10:17.429Z,94.9
2017-02-05T12:11:20.394Z,94.9
2017-02-05T12:12:22.352Z,94.9
2017-02-05T12:13:24.789Z,94.9
2017-02-05T12:14:27.742Z,94.9
2017-02-05T12:15:30.186Z,94.9
2017-02-05T12:16:32.662Z,94.9
2017-02-05T12:17:35.105Z,94.9
2017-02-05T12:19:40.455Z,94.8
2017-02-05T12:20:42.896Z,94.8
2017-02-05T12:21:45.338Z,94.8
2017-02-05T12:22:48.115Z,94.8
2017-02-05T12:23:50.558Z,94.8
2017-02-05T12:24:53.503Z,94.8
2017-02-05T12:25:55.942Z,94.8
2017-02-05T12:26:58.381Z,94.8
2017-02-05T12:28:00.826Z,94.8
2017-02-05T12:29:04.326Z,94.7
2017-02-05T12:30:06.263Z,94.7
2017-02-05T12:31:08.742Z,94.7
2017-02-05T12:32:11.018Z,94.7
2017-02-05T12:33:13.962Z,94.7
2017-02-05T12:34:16.405Z,94.7
2017-02-05T12:35:19.350Z,94.7
2017-02-05T12:36:21.791Z,94.7
2017-02-05T12:37:24.238Z,94.7
2017-02-05T12:38:26.678Z,94.6
2017-02-05T12:39:29.625Z,94.6
2017-02-05T12:40:31.900Z,94.6
2017-02-05T12:41:34.845Z,94.6
2017-02-05T12:42:37.119Z,94.6
2017-02-05T12:43:39.563Z,94.6
2017-02-05T12:45:44.915Z,94.5
2017-02-05T12:46:47.362Z,94.5
2017-02-05T12:48:52.715Z,94.5
2017-02-05T12:49:55.179Z,94.5
2017-02-05T12:52:00.531Z,94.5
2017-02-05T12:53:02.978Z,94.4
2017-02-05T12:54:05.415Z,94.4
2017-02-05T12:55:08.026Z,94.4
2017-02-05T12:56:10.974Z,94.4
2017-02-05T12:57:13.416Z,94.4
2017-02-05T12:58:15.870Z,94.4
2017-02-05T12:59:18.312Z,94.4
2017-02-05T13:00:21.256Z,94.3
2017-02-05T13:01:23.700Z,94.3
2017-02-05T13:02:26.140Z,94.3
2017-02-05T13:03:29.084Z,94.3
2017-02-05T13:04:31.526Z,94.3
2017-02-05T13:05:33.981Z,94.3
2017-02-05T13:07:39.010Z,94.3
2017-02-05T13:09:44.359Z,94.2
2017-02-05T13:10:46.801Z,94.2
2017-02-05T13:11:49.746Z,94.2
2017-02-05T13:12:52.187Z,94.2
2017-02-05T13:13:54.550Z,94.2
2017-02-05T13:14:57.494Z,94.2
2017-02-05T13:15:59.935Z,94.2
2017-02-05T13:17:02.383Z,94.2
2017-02-05T13:18:04.826Z,94.1
2017-02-05T13:19:07.605Z,94.1
2017-02-05T13:20:10.049Z,94.1
2017-02-05T13:21:12.998Z,94.1
2017-02-05T13:22:15.433Z,94.1
2017-02-05T13:23:17.867Z,94.1
2017-02-05T13:24:20.309Z,94.1
2017-02-05T13:25:23.260Z,94
2017-02-05T13:26:25.705Z,94
2017-02-05T13:27:28.144Z,94
2017-02-05T13:28:31.092Z,94
2017-02-05T13:29:33.539Z,94
2017-02-05T13:30:35.980Z,94
2017-02-05T13:31:38.926Z,94
2017-02-05T13:32:41.366Z,94
2017-02-05T13:33:43.828Z,94
2017-02-05T13:34:46.611Z,93.9
2017-02-05T13:35:49.055Z,93.9
2017-02-05T13:36:51.495Z,93.9
2017-02-05T13:37:54.441Z,93.9
2017-02-05T13:38:56.891Z,93.9
2017-02-05T13:41:02.295Z,93.9
2017-02-05T13:43:07.016Z,93.9
2017-02-05T13:44:09.959Z,93.8
2017-02-05T13:45:12.235Z,93.8
2017-02-05T13:46:15.183Z,93.8
2017-02-05T13:49:22.940Z,93.8
2017-02-05T13:51:27.791Z,93.8
2017-02-05T13:53:33.145Z,93.8
2017-02-05T13:54:35.930Z,93.8
2017-02-05T13:57:43.206Z,93.8
2017-02-05T13:58:46.151Z,93.8
2017-02-05T14:00:50.831Z,93.8
2017-02-05T14:01:53.778Z,93.9
2017-02-05T14:07:06.881Z,93.9
2017-02-05T14:08:09.319Z,93.9
2017-02-05T14:09:12.103Z,93.9
2017-02-05T14:10:14.545Z,93.9
2017-02-05T14:11:16.984Z,94
2017-02-05T14:13:22.337Z,94
2017-02-05T14:14:24.776Z,94
2017-02-05T14:15:27.219Z,94
2017-02-05T14:16:30.165Z,94
2017-02-05T14:17:32.441Z,94
2017-02-05T14:18:35.217Z,94
2017-02-05T14:19:37.658Z,94
2017-02-05T14:20:40.604Z,94.1
2017-02-05T14:21:43.050Z,94.1
2017-02-05T14:22:45.491Z,94.1
2017-02-05T14:23:47.932Z,94.1
2017-02-05T14:24:50.882Z,94.1
2017-02-05T14:25:53.329Z,94.1
2017-02-05T14:26:55.774Z,94.1
2017-02-05T14:27:58.552Z,94.2
2017-02-05T14:29:00.994Z,94.2
2017-02-05T14:30:03.605Z,94.2
2017-02-05T14:31:06.215Z,94.2
2017-02-05T14:32:08.657Z,94.2
2017-02-05T14:34:14.015Z,94.2
2017-02-05T14:35:16.458Z,94.2
2017-02-05T14:36:18.901Z,94.2
2017-02-05T14:37:21.850Z,94.3
2017-02-05T14:38:24.309Z,94.3
2017-02-05T14:39:26.774Z,94.3
2017-02-05T14:40:29.720Z,94.3
2017-02-05T14:41:32.166Z,94.3
2017-02-05T14:42:34.608Z,94.3
2017-02-05T14:43:37.073Z,94.3
2017-02-05T14:44:40.023Z,94.3
2017-02-05T14:45:42.463Z,94.4
2017-02-05T14:46:44.902Z,94.4
2017-02-05T14:47:47.349Z,94.4
2017-02-05T14:48:50.295Z,94.4
2017-02-05T14:49:52.740Z,94.4
2017-02-05T14:50:55.049Z,94.4
2017-02-05T14:53:00.425Z,94.4
2017-02-05T14:54:03.203Z,94.4
2017-02-05T14:55:05.645Z,94.4
2017-02-05T14:56:08.254Z,94.4
2017-02-05T14:57:10.702Z,94.5
2017-02-05T14:58:13.145Z,94.5
2017-02-05T14:59:16.094Z,94.5
2017-02-05T15:00:18.534Z,94.5
2017-02-05T15:01:20.976Z,94.5
2017-02-05T15:02:23.417Z,94.5
2017-02-05T15:04:28.764Z,94.5
2017-02-05T15:05:31.202Z,94.5
2017-02-05T15:06:34.147Z,94.5
2017-02-05T15:07:36.587Z,94.5
2017-02-05T15:08:39.029Z,94.5
2017-02-05T15:09:41.973Z,94.5
2017-02-05T15:10:44.418Z,94.5
2017-02-05T15:11:46.937Z,94.5
2017-02-05T15:12:49.382Z,94.6
2017-02-05T15:13:51.827Z,94.6
2017-02-05T15:14:54.769Z,94.6
2017-02-05T15:15:57.212Z,94.6
2017-02-05T15:16:59.700Z,94.6
2017-02-05T15:18:02.143Z,94.6
2017-02-05T15:19:05.092Z,94.6
2017-02-05T15:20:07.539Z,94.6
2017-02-05T15:21:10.151Z,94.6
2017-02-05T15:22:12.598Z,94.6
2017-02-05T15:23:15.036Z,94.6
2017-02-05T15:25:20.218Z,94.6
2017-02-05T15:26:23.165Z,94.6
2017-02-05T15:27:25.607Z,94.6
2017-02-05T15:28:28.046Z,94.7
2017-02-05T15:29:30.828Z,94.7